sensor_id;sensor_type;location;lat;lon;timestamp;pressure;altitude;pressure_sealevel;temperature;humidity
49063;BME280;34876;51.464;-0.150;2023-02-16T00:01:52;102172.47;;;17.86;41.77
49063;BME280;34876;51.464;-0.150;2023-02-16T00:04:23;102167.65;;;17.79;42.15
49063;BME280;34876;51.464;-0.150;2023-02-16T00:06:55;102169.35;;;17.82;41.87
49063;BME280;34876;51.464;-0.150;2023-02-16T00:09:25;102171.93;;;17.58;42.48
49063;BME280;34876;51.464;-0.150;2023-02-16T00:11:56;102169.68;;;17.79;42.21
49063;BME280;34876;51.464;-0.150;2023-02-16T00:14:26;102171.92;;;17.81;42.02
49063;BME280;34876;51.464;-0.150;2023-02-16T00:16:59;102172.15;;;17.82;41.89
49063;BME280;34876;51.464;-0.150;2023-02-16T00:19:31;102170.20;;;17.80;42.41
49063;BME280;34876;51.464;-0.150;2023-02-16T00:22:02;102167.25;;;17.70;42.17
49063;BME280;34876;51.464;-0.150;2023-02-16T00:24:33;102166.71;;;17.79;41.96
49063;BME280;34876;51.464;-0.150;2023-02-16T00:27:11;102164.98;;;17.79;41.98
49063;BME280;34876;51.464;-0.150;2023-02-16T00:29:42;102163.89;;;17.78;41.96
49063;BME280;34876;51.464;-0.150;2023-02-16T00:32:12;102160.69;;;17.80;41.92
49063;BME280;34876;51.464;-0.150;2023-02-16T00:34:41;102160.41;;;17.80;41.91
49063;BME280;34876;51.464;-0.150;2023-02-16T00:37:12;102156.94;;;17.82;41.81
49063;BME280;34876;51.464;-0.150;2023-02-16T00:39:43;102156.23;;;17.81;41.76
49063;BME280;34876;51.464;-0.150;2023-02-16T00:42:17;102157.93;;;17.82;41.75
49063;BME280;34876;51.464;-0.150;2023-02-16T00:44:48;102157.89;;;17.82;41.77
49063;BME280;34876;51.464;-0.150;2023-02-16T00:47:20;102154.18;;;17.81;41.74
49063;BME280;34876;51.464;-0.150;2023-02-16T00:49:52;102144.89;;;17.79;41.95
49063;BME280;34876;51.464;-0.150;2023-02-16T00:52:31;102143.52;;;17.78;41.92
49063;BME280;34876;51.464;-0.150;2023-02-16T00:55:04;102145.14;;;17.78;41.79
49063;BME280;34876;51.464;-0.150;2023-02-16T00:57:38;102141.71;;;17.78;41.78
49063;BME280;34876;51.464;-0.150;2023-02-16T01:00:15;102143.87;;;17.77;41.88
49063;BME280;34876;51.464;-0.150;2023-02-16T01:03:35;102141.10;;;17.78;41.76
49063;BME280;34876;51.464;-0.150;2023-02-16T01:06:05;102140.83;;;17.78;41.82
49063;BME280;34876;51.464;-0.150;2023-02-16T01:08:34;102142.38;;;17.77;41.84
49063;BME280;34876;51.464;-0.150;2023-02-16T01:11:06;102139.18;;;17.79;41.71
49063;BME280;34876;51.464;-0.150;2023-02-16T01:13:42;102134.19;;;17.78;41.90
49063;BME280;34876;51.464;-0.150;2023-02-16T01:16:16;102133.94;;;17.77;41.97
49063;BME280;34876;51.464;-0.150;2023-02-16T01:18:47;102135.12;;;17.75;41.91
49063;BME280;34876;51.464;-0.150;2023-02-16T01:21:17;102135.05;;;17.73;41.90
49063;BME280;34876;51.464;-0.150;2023-02-16T01:23:47;102136.60;;;17.76;41.80
49063;BME280;34876;51.464;-0.150;2023-02-16T01:26:18;102134.81;;;17.75;41.77
49063;BME280;34876;51.464;-0.150;2023-02-16T01:28:48;102134.98;;;17.77;41.78
49063;BME280;34876;51.464;-0.150;2023-02-16T01:31:17;102132.96;;;17.77;41.75
49063;BME280;34876;51.464;-0.150;2023-02-16T01:33:46;102133.96;;;17.78;41.73
49063;BME280;34876;51.464;-0.150;2023-02-16T01:36:21;102132.67;;;17.78;41.73
49063;BME280;34876;51.464;-0.150;2023-02-16T01:38:51;102135.51;;;17.78;41.70
49063;BME280;34876;51.464;-0.150;2023-02-16T01:41:39;102136.80;;;17.78;41.72
49063;BME280;34876;51.464;-0.150;2023-02-16T01:44:15;102138.37;;;17.78;41.72
49063;BME280;34876;51.464;-0.150;2023-02-16T01:46:49;102138.48;;;17.76;41.71
49063;BME280;34876;51.464;-0.150;2023-02-16T01:49:20;102137.06;;;17.77;41.73
49063;BME280;34876;51.464;-0.150;2023-02-16T01:51:56;102134.76;;;17.77;41.72
49063;BME280;34876;51.464;-0.150;2023-02-16T01:54:33;102131.55;;;17.78;41.75
49063;BME280;34876;51.464;-0.150;2023-02-16T01:57:08;102134.22;;;17.78;41.66
49063;BME280;34876;51.464;-0.150;2023-02-16T02:00:06;102135.27;;;17.79;41.62
49063;BME280;34876;51.464;-0.150;2023-02-16T02:02:38;102133.81;;;17.77;41.77
49063;BME280;34876;51.464;-0.150;2023-02-16T02:05:19;102133.30;;;17.79;41.69
49063;BME280;34876;51.464;-0.150;2023-02-16T02:07:53;102132.73;;;17.79;41.72
49063;BME280;34876;51.464;-0.150;2023-02-16T02:10:29;102125.62;;;17.80;41.65
49063;BME280;34876;51.464;-0.150;2023-02-16T02:13:04;102127.01;;;17.80;41.71
49063;BME280;34876;51.464;-0.150;2023-02-16T02:15:35;102122.60;;;17.79;41.71
49063;BME280;34876;51.464;-0.150;2023-02-16T02:18:04;102125.25;;;17.79;41.77
49063;BME280;34876;51.464;-0.150;2023-02-16T02:20:44;102125.38;;;17.80;41.82
49063;BME280;34876;51.464;-0.150;2023-02-16T02:23:25;102123.51;;;17.79;41.72
49063;BME280;34876;51.464;-0.150;2023-02-16T02:26:20;102131.45;;;17.81;41.77
49063;BME280;34876;51.464;-0.150;2023-02-16T02:29:02;102125.06;;;17.74;41.92
49063;BME280;34876;51.464;-0.150;2023-02-16T02:31:43;102125.52;;;17.79;41.77
49063;BME280;34876;51.464;-0.150;2023-02-16T02:34:20;102124.76;;;17.82;41.67
49063;BME280;34876;51.464;-0.150;2023-02-16T02:36:59;102127.01;;;17.82;41.74
49063;BME280;34876;51.464;-0.150;2023-02-16T02:39:36;102123.48;;;17.82;41.66
49063;BME280;34876;51.464;-0.150;2023-02-16T02:42:13;102124.98;;;17.82;41.70
49063;BME280;34876;51.464;-0.150;2023-02-16T02:44:49;102120.84;;;17.82;41.72
49063;BME280;34876;51.464;-0.150;2023-02-16T02:47:20;102117.79;;;17.81;41.78
49063;BME280;34876;51.464;-0.150;2023-02-16T02:49:50;102117.78;;;17.82;41.71
49063;BME280;34876;51.464;-0.150;2023-02-16T02:52:21;102116.91;;;17.84;41.64
49063;BME280;34876;51.464;-0.150;2023-02-16T02:54:50;102111.44;;;17.84;41.69
49063;BME280;34876;51.464;-0.150;2023-02-16T02:57:23;102110.31;;;17.84;41.69
49063;BME280;34876;51.464;-0.150;2023-02-16T02:59:59;102103.50;;;17.84;41.71
49063;BME280;34876;51.464;-0.150;2023-02-16T03:02:32;102098.00;;;17.84;41.63
49063;BME280;34876;51.464;-0.150;2023-02-16T03:05:05;102091.16;;;17.85;41.67
49063;BME280;34876;51.464;-0.150;2023-02-16T03:07:37;102085.41;;;17.84;41.62
49063;BME280;34876;51.464;-0.150;2023-02-16T03:10:07;102082.11;;;17.86;41.62
49063;BME280;34876;51.464;-0.150;2023-02-16T03:12:36;102079.06;;;17.85;41.69
49063;BME280;34876;51.464;-0.150;2023-02-16T03:15:06;102075.23;;;17.84;41.69
49063;BME280;34876;51.464;-0.150;2023-02-16T03:17:36;102072.21;;;17.86;41.70
49063;BME280;34876;51.464;-0.150;2023-02-16T03:20:11;102066.94;;;17.86;41.72
49063;BME280;34876;51.464;-0.150;2023-02-16T03:22:42;102062.33;;;17.85;41.68
49063;BME280;34876;51.464;-0.150;2023-02-16T03:25:12;102056.01;;;17.85;41.74
49063;BME280;34876;51.464;-0.150;2023-02-16T03:27:42;102050.13;;;17.85;41.68
49063;BME280;34876;51.464;-0.150;2023-02-16T03:30:12;102041.94;;;17.86;41.69
49063;BME280;34876;51.464;-0.150;2023-02-16T03:32:44;102039.05;;;17.85;41.69
49063;BME280;34876;51.464;-0.150;2023-02-16T03:35:14;102025.72;;;17.85;41.69
49063;BME280;34876;51.464;-0.150;2023-02-16T03:37:44;102026.10;;;17.84;41.77
49063;BME280;34876;51.464;-0.150;2023-02-16T03:40:15;102023.47;;;17.84;41.76
49063;BME280;34876;51.464;-0.150;2023-02-16T03:42:48;102022.49;;;17.83;41.79
49063;BME280;34876;51.464;-0.150;2023-02-16T03:45:17;102019.74;;;17.83;41.78
49063;BME280;34876;51.464;-0.150;2023-02-16T03:47:47;102014.57;;;17.84;41.78
49063;BME280;34876;51.464;-0.150;2023-02-16T03:50:16;102013.66;;;17.84;41.77
49063;BME280;34876;51.464;-0.150;2023-02-16T03:52:45;102016.02;;;17.86;41.72
49063;BME280;34876;51.464;-0.150;2023-02-16T03:55:15;102015.16;;;17.85;41.77
49063;BME280;34876;51.464;-0.150;2023-02-16T03:57:44;102010.69;;;17.85;41.75
49063;BME280;34876;51.464;-0.150;2023-02-16T04:00:14;102006.68;;;17.84;41.75
49063;BME280;34876;51.464;-0.150;2023-02-16T04:02:43;102011.79;;;17.83;41.78
49063;BME280;34876;51.464;-0.150;2023-02-16T04:05:12;102019.38;;;17.86;41.72
49063;BME280;34876;51.464;-0.150;2023-02-16T04:07:41;102024.51;;;17.83;41.76
49063;BME280;34876;51.464;-0.150;2023-02-16T04:10:10;102031.55;;;17.83;41.79
49063;BME280;34876;51.464;-0.150;2023-02-16T04:12:39;102027.08;;;17.83;41.77
49063;BME280;34876;51.464;-0.150;2023-02-16T04:15:11;102030.37;;;17.82;41.82
49063;BME280;34876;51.464;-0.150;2023-02-16T04:17:41;102032.32;;;17.82;41.82
49063;BME280;34876;51.464;-0.150;2023-02-16T04:20:14;102031.71;;;17.82;41.77
49063;BME280;34876;51.464;-0.150;2023-02-16T04:22:44;102028.45;;;17.82;41.76
49063;BME280;34876;51.464;-0.150;2023-02-16T04:25:14;102022.18;;;17.82;41.76
49063;BME280;34876;51.464;-0.150;2023-02-16T04:27:44;102014.13;;;17.82;41.75
49063;BME280;34876;51.464;-0.150;2023-02-16T04:30:16;102014.48;;;17.82;41.79
49063;BME280;34876;51.464;-0.150;2023-02-16T04:32:45;102006.22;;;17.83;41.77
49063;BME280;34876;51.464;-0.150;2023-02-16T04:35:15;102008.22;;;17.83;41.79
49063;BME280;34876;51.464;-0.150;2023-02-16T04:37:46;102010.37;;;17.82;41.74
49063;BME280;34876;51.464;-0.150;2023-02-16T04:40:16;102008.08;;;17.82;41.75
49063;BME280;34876;51.464;-0.150;2023-02-16T04:42:46;102009.19;;;17.83;41.76
49063;BME280;34876;51.464;-0.150;2023-02-16T04:45:15;101999.02;;;17.81;41.71
49063;BME280;34876;51.464;-0.150;2023-02-16T04:47:45;102004.93;;;17.81;41.77
49063;BME280;34876;51.464;-0.150;2023-02-16T04:50:14;102002.33;;;17.82;41.69
49063;BME280;34876;51.464;-0.150;2023-02-16T04:52:43;102004.62;;;17.82;41.69
49063;BME280;34876;51.464;-0.150;2023-02-16T04:55:11;102005.31;;;17.82;41.70
49063;BME280;34876;51.464;-0.150;2023-02-16T04:57:40;102005.83;;;17.83;41.69
49063;BME280;34876;51.464;-0.150;2023-02-16T05:00:10;102013.29;;;17.82;41.68
49063;BME280;34876;51.464;-0.150;2023-02-16T05:02:39;102006.28;;;17.83;41.63
49063;BME280;34876;51.464;-0.150;2023-02-16T05:05:08;102009.52;;;17.83;41.69
49063;BME280;34876;51.464;-0.150;2023-02-16T05:07:37;102007.79;;;17.83;41.65
49063;BME280;34876;51.464;-0.150;2023-02-16T05:10:07;101999.97;;;17.82;41.68
49063;BME280;34876;51.464;-0.150;2023-02-16T05:12:36;101990.82;;;17.83;41.63
49063;BME280;34876;51.464;-0.150;2023-02-16T05:15:05;101996.42;;;17.83;41.64
49063;BME280;34876;51.464;-0.150;2023-02-16T05:17:34;101992.19;;;17.82;41.65
49063;BME280;34876;51.464;-0.150;2023-02-16T05:20:05;101989.69;;;17.82;41.71
49063;BME280;34876;51.464;-0.150;2023-02-16T05:22:34;101982.46;;;17.81;41.71
49063;BME280;34876;51.464;-0.150;2023-02-16T05:25:03;101977.48;;;17.82;41.66
49063;BME280;34876;51.464;-0.150;2023-02-16T05:27:32;101974.93;;;17.81;41.64
49063;BME280;34876;51.464;-0.150;2023-02-16T05:30:00;101963.68;;;17.81;41.65
49063;BME280;34876;51.464;-0.150;2023-02-16T05:32:29;101954.48;;;17.82;41.61
49063;BME280;34876;51.464;-0.150;2023-02-16T05:34:58;101952.48;;;17.82;41.68
49063;BME280;34876;51.464;-0.150;2023-02-16T05:37:27;101945.74;;;17.83;41.59
49063;BME280;34876;51.464;-0.150;2023-02-16T05:39:56;101937.71;;;17.82;41.63
49063;BME280;34876;51.464;-0.150;2023-02-16T05:42:25;101946.17;;;17.81;41.64
49063;BME280;34876;51.464;-0.150;2023-02-16T05:44:54;101950.81;;;17.81;41.66
49063;BME280;34876;51.464;-0.150;2023-02-16T05:47:23;101949.84;;;17.82;41.66
49063;BME280;34876;51.464;-0.150;2023-02-16T05:49:53;101952.81;;;17.84;41.60
49063;BME280;34876;51.464;-0.150;2023-02-16T05:52:21;101959.43;;;17.61;42.18
49063;BME280;34876;51.464;-0.150;2023-02-16T05:54:50;101959.25;;;17.78;41.72
49063;BME280;34876;51.464;-0.150;2023-02-16T05:57:19;101963.84;;;17.83;41.62
49063;BME280;34876;51.464;-0.150;2023-02-16T05:59:48;101966.71;;;17.68;42.02
49063;BME280;34876;51.464;-0.150;2023-02-16T06:02:17;101963.81;;;17.54;42.37
49063;BME280;34876;51.464;-0.150;2023-02-16T06:04:46;101961.67;;;17.80;41.77
49063;BME280;34876;51.464;-0.150;2023-02-16T06:07:15;101951.28;;;17.81;41.78
49063;BME280;34876;51.464;-0.150;2023-02-16T06:09:44;101950.78;;;17.76;41.84
49063;BME280;34876;51.464;-0.150;2023-02-16T06:12:13;101952.29;;;17.82;41.71
49063;BME280;34876;51.464;-0.150;2023-02-16T06:14:41;101950.40;;;17.82;41.69
49063;BME280;34876;51.464;-0.150;2023-02-16T06:17:10;101952.34;;;17.51;42.62
49063;BME280;34876;51.464;-0.150;2023-02-16T06:19:40;101948.23;;;17.55;42.38
49063;BME280;34876;51.464;-0.150;2023-02-16T06:22:09;101948.48;;;17.32;42.99
49063;BME280;34876;51.464;-0.150;2023-02-16T06:24:38;101948.79;;;17.75;41.96
49063;BME280;34876;51.464;-0.150;2023-02-16T06:27:07;101945.51;;;17.83;41.77
49063;BME280;34876;51.464;-0.150;2023-02-16T06:29:36;101949.94;;;17.78;41.96
49063;BME280;34876;51.464;-0.150;2023-02-16T06:32:05;101948.08;;;17.81;41.77
49063;BME280;34876;51.464;-0.150;2023-02-16T06:34:34;101945.13;;;17.81;42.67
49063;BME280;34876;51.464;-0.150;2023-02-16T06:37:03;101947.78;;;17.83;41.68
49063;BME280;34876;51.464;-0.150;2023-02-16T06:39:31;101934.76;;;17.85;41.70
49063;BME280;34876;51.464;-0.150;2023-02-16T06:42:01;101929.56;;;17.76;42.80
49063;BME280;34876;51.464;-0.150;2023-02-16T06:44:30;101925.96;;;17.85;41.68
49063;BME280;34876;51.464;-0.150;2023-02-16T06:46:59;101933.63;;;17.86;41.72
49063;BME280;34876;51.464;-0.150;2023-02-16T06:49:28;101944.48;;;17.17;43.77
49063;BME280;34876;51.464;-0.150;2023-02-16T06:51:57;101942.25;;;17.73;42.10
49063;BME280;34876;51.464;-0.150;2023-02-16T06:54:26;101944.04;;;17.85;41.84
49063;BME280;34876;51.464;-0.150;2023-02-16T06:56:56;101944.38;;;17.80;42.00
49063;BME280;34876;51.464;-0.150;2023-02-16T06:59:25;101944.15;;;17.83;41.82
49063;BME280;34876;51.464;-0.150;2023-02-16T07:01:53;101943.94;;;17.86;41.76
49063;BME280;34876;51.464;-0.150;2023-02-16T07:04:23;101947.45;;;17.86;41.72
49063;BME280;34876;51.464;-0.150;2023-02-16T07:06:52;101946.03;;;17.84;41.84
49063;BME280;34876;51.464;-0.150;2023-02-16T07:09:20;101937.86;;;17.81;42.02
49063;BME280;34876;51.464;-0.150;2023-02-16T07:11:49;101935.56;;;17.86;41.81
49063;BME280;34876;51.464;-0.150;2023-02-16T07:14:18;101933.45;;;17.87;41.69
49063;BME280;34876;51.464;-0.150;2023-02-16T07:16:47;101936.81;;;17.52;42.56
49063;BME280;34876;51.464;-0.150;2023-02-16T07:19:16;101939.17;;;17.63;42.48
49063;BME280;34876;51.464;-0.150;2023-02-16T07:21:45;101940.11;;;17.60;42.55
49063;BME280;34876;51.464;-0.150;2023-02-16T07:24:14;101930.33;;;17.81;42.01
49063;BME280;34876;51.464;-0.150;2023-02-16T07:26:43;101931.19;;;17.74;42.24
49063;BME280;34876;51.464;-0.150;2023-02-16T07:29:12;101926.46;;;17.85;41.79
49063;BME280;34876;51.464;-0.150;2023-02-16T07:31:41;101920.74;;;17.87;41.78
49063;BME280;34876;51.464;-0.150;2023-02-16T07:34:09;101916.87;;;17.84;41.94
49063;BME280;34876;51.464;-0.150;2023-02-16T07:36:38;101916.71;;;17.61;42.37
49063;BME280;34876;51.464;-0.150;2023-02-16T07:39:07;101911.33;;;17.69;42.43
49063;BME280;34876;51.464;-0.150;2023-02-16T07:41:36;101914.64;;;17.84;42.13
49063;BME280;34876;51.464;-0.150;2023-02-16T07:44:05;101912.73;;;17.85;41.94
49063;BME280;34876;51.464;-0.150;2023-02-16T07:46:34;101919.99;;;17.88;41.91
49063;BME280;34876;51.464;-0.150;2023-02-16T07:49:02;101918.27;;;17.87;42.04
49063;BME280;34876;51.464;-0.150;2023-02-16T07:51:31;101920.92;;;17.95;41.62
49063;BME280;34876;51.464;-0.150;2023-02-16T07:54:00;101923.55;;;17.91;41.88
49063;BME280;34876;51.464;-0.150;2023-02-16T07:56:34;101926.45;;;17.71;42.35
49063;BME280;34876;51.464;-0.150;2023-02-16T07:59:03;101935.24;;;17.92;42.38
49063;BME280;34876;51.464;-0.150;2023-02-16T08:01:32;101936.06;;;17.97;41.61
49063;BME280;34876;51.464;-0.150;2023-02-16T08:04:01;101936.97;;;17.85;41.95
49063;BME280;34876;51.464;-0.150;2023-02-16T08:06:30;101934.92;;;17.96;41.62
49063;BME280;34876;51.464;-0.150;2023-02-16T08:09:03;101936.31;;;17.88;41.88
49063;BME280;34876;51.464;-0.150;2023-02-16T08:11:32;101936.42;;;17.90;41.65
49063;BME280;34876;51.464;-0.150;2023-02-16T08:14:01;101935.55;;;17.96;41.55
49063;BME280;34876;51.464;-0.150;2023-02-16T08:16:31;101935.91;;;17.96;41.48
49063;BME280;34876;51.464;-0.150;2023-02-16T08:19:00;101939.30;;;17.99;41.48
49063;BME280;34876;51.464;-0.150;2023-02-16T08:21:32;101934.45;;;17.95;41.56
49063;BME280;34876;51.464;-0.150;2023-02-16T08:24:03;101935.85;;;17.98;41.60
49063;BME280;34876;51.464;-0.150;2023-02-16T08:26:35;101936.10;;;17.81;41.90
49063;BME280;34876;51.464;-0.150;2023-02-16T08:29:05;101933.00;;;17.71;42.23
49063;BME280;34876;51.464;-0.150;2023-02-16T08:31:35;101936.66;;;17.78;42.16
49063;BME280;34876;51.464;-0.150;2023-02-16T08:34:05;101931.11;;;17.78;42.13
49063;BME280;34876;51.464;-0.150;2023-02-16T08:36:36;101929.67;;;17.94;41.74
49063;BME280;34876;51.464;-0.150;2023-02-16T08:39:08;101928.60;;;17.68;43.07
49063;BME280;34876;51.464;-0.150;2023-02-16T08:41:40;101923.52;;;17.88;42.12
49063;BME280;34876;51.464;-0.150;2023-02-16T08:44:10;101919.91;;;17.62;44.77
49063;BME280;34876;51.464;-0.150;2023-02-16T08:46:42;101913.00;;;17.70;42.35
49063;BME280;34876;51.464;-0.150;2023-02-16T08:49:13;101905.80;;;17.89;41.86
49063;BME280;34876;51.464;-0.150;2023-02-16T08:51:45;101909.47;;;17.97;41.82
49063;BME280;34876;51.464;-0.150;2023-02-16T08:54:16;101913.58;;;17.59;43.14
49063;BME280;34876;51.464;-0.150;2023-02-16T08:56:46;101912.44;;;17.92;42.34
49063;BME280;34876;51.464;-0.150;2023-02-16T08:59:17;101913.39;;;17.95;42.40
49063;BME280;34876;51.464;-0.150;2023-02-16T09:01:47;101913.13;;;17.85;42.27
49063;BME280;34876;51.464;-0.150;2023-02-16T09:04:17;101907.66;;;17.95;42.15
49063;BME280;34876;51.464;-0.150;2023-02-16T09:06:47;101900.42;;;17.93;42.04
49063;BME280;34876;51.464;-0.150;2023-02-16T09:09:16;101904.22;;;17.86;42.29
49063;BME280;34876;51.464;-0.150;2023-02-16T09:11:46;101902.63;;;18.01;41.83
49063;BME280;34876;51.464;-0.150;2023-02-16T09:14:17;101902.88;;;17.97;42.18
49063;BME280;34876;51.464;-0.150;2023-02-16T09:16:46;101904.95;;;18.03;41.85
49063;BME280;34876;51.464;-0.150;2023-02-16T09:19:18;101909.76;;;17.87;42.90
49063;BME280;34876;51.464;-0.150;2023-02-16T09:21:48;101914.13;;;17.87;42.52
49063;BME280;34876;51.464;-0.150;2023-02-16T09:24:17;101909.02;;;17.89;42.52
49063;BME280;34876;51.464;-0.150;2023-02-16T09:26:47;101917.45;;;17.25;44.38
49063;BME280;34876;51.464;-0.150;2023-02-16T09:29:16;101910.95;;;17.82;42.97
49063;BME280;34876;51.464;-0.150;2023-02-16T09:31:45;101903.05;;;17.95;42.38
49063;BME280;34876;51.464;-0.150;2023-02-16T09:34:16;101904.73;;;17.89;43.01
49063;BME280;34876;51.464;-0.150;2023-02-16T09:36:47;101902.82;;;18.05;42.14
49063;BME280;34876;51.464;-0.150;2023-02-16T09:39:17;101901.59;;;18.00;42.56
49063;BME280;34876;51.464;-0.150;2023-02-16T09:42:10;101904.04;;;18.05;42.43
49063;BME280;34876;51.464;-0.150;2023-02-16T09:44:50;101901.93;;;17.58;43.82
49063;BME280;34876;51.464;-0.150;2023-02-16T09:47:24;101900.96;;;18.07;42.25
49063;BME280;34876;51.464;-0.150;2023-02-16T09:49:56;101904.69;;;17.90;42.96
49063;BME280;34876;51.464;-0.150;2023-02-16T09:52:33;101903.91;;;18.12;42.11
49063;BME280;34876;51.464;-0.150;2023-02-16T09:55:06;101896.33;;;18.09;42.34
49063;BME280;34876;51.464;-0.150;2023-02-16T09:57:44;101901.05;;;17.74;45.25
49063;BME280;34876;51.464;-0.150;2023-02-16T10:00:23;101898.73;;;17.66;43.99
49063;BME280;34876;51.464;-0.150;2023-02-16T10:03:00;101896.33;;;17.89;42.88
49063;BME280;34876;51.464;-0.150;2023-02-16T10:05:44;101890.52;;;17.92;43.41
49063;BME280;34876;51.464;-0.150;2023-02-16T10:08:18;101891.15;;;17.87;43.30
49063;BME280;34876;51.464;-0.150;2023-02-16T10:10:59;101896.69;;;17.88;43.19
49063;BME280;34876;51.464;-0.150;2023-02-16T10:13:36;101896.85;;;18.04;42.87
49063;BME280;34876;51.464;-0.150;2023-02-16T10:16:13;101905.20;;;17.87;43.39
49063;BME280;34876;51.464;-0.150;2023-02-16T10:18:47;101912.01;;;17.59;45.06
49063;BME280;34876;51.464;-0.150;2023-02-16T10:21:23;101907.97;;;17.79;47.26
49063;BME280;34876;51.464;-0.150;2023-02-16T10:23:56;101908.69;;;18.06;43.30
49063;BME280;34876;51.464;-0.150;2023-02-16T10:26:31;101903.51;;;18.20;42.47
49063;BME280;34876;51.464;-0.150;2023-02-16T10:29:06;101899.89;;;17.88;43.59
49063;BME280;34876;51.464;-0.150;2023-02-16T10:31:39;101899.54;;;18.20;43.03
49063;BME280;34876;51.464;-0.150;2023-02-16T10:34:17;101895.33;;;18.15;42.71
49063;BME280;34876;51.464;-0.150;2023-02-16T10:36:59;101896.65;;;18.25;42.23
49063;BME280;34876;51.464;-0.150;2023-02-16T10:39:37;101896.17;;;18.12;42.63
49063;BME280;34876;51.464;-0.150;2023-02-16T10:42:17;101898.04;;;18.25;42.45
49063;BME280;34876;51.464;-0.150;2023-02-16T10:44:54;101901.82;;;18.05;42.97
49063;BME280;34876;51.464;-0.150;2023-02-16T10:47:32;101904.49;;;18.19;42.48
49063;BME280;34876;51.464;-0.150;2023-02-16T10:50:02;101909.28;;;18.02;42.94
49063;BME280;34876;51.464;-0.150;2023-02-16T10:52:36;101909.65;;;18.13;43.21
49063;BME280;34876;51.464;-0.150;2023-02-16T10:55:07;101909.88;;;18.17;43.93
49063;BME280;34876;51.464;-0.150;2023-02-16T10:57:36;101916.92;;;18.08;42.89
49063;BME280;34876;51.464;-0.150;2023-02-16T11:00:12;101923.71;;;18.12;43.17
49063;BME280;34876;51.464;-0.150;2023-02-16T11:02:45;101921.72;;;17.96;43.41
49063;BME280;34876;51.464;-0.150;2023-02-16T11:05:35;101921.54;;;17.72;44.35
49063;BME280;34876;51.464;-0.150;2023-02-16T11:08:07;101919.76;;;18.16;43.13
49063;BME280;34876;51.464;-0.150;2023-02-16T11:10:41;101912.53;;;18.19;42.62
49063;BME280;34876;51.464;-0.150;2023-02-16T11:13:26;101910.66;;;18.08;44.00
49063;BME280;34876;51.464;-0.150;2023-02-16T11:15:59;101912.97;;;18.06;43.54
49063;BME280;34876;51.464;-0.150;2023-02-16T11:18:38;101906.23;;;18.08;43.49
49063;BME280;34876;51.464;-0.150;2023-02-16T11:21:09;101907.02;;;18.22;42.78
49063;BME280;34876;51.464;-0.150;2023-02-16T11:23:40;101905.39;;;18.19;42.98
49063;BME280;34876;51.464;-0.150;2023-02-16T11:26:22;101903.59;;;18.28;43.15
49063;BME280;34876;51.464;-0.150;2023-02-16T11:28:52;101901.86;;;18.22;42.92
49063;BME280;34876;51.464;-0.150;2023-02-16T11:31:26;101902.45;;;17.98;43.71
49063;BME280;34876;51.464;-0.150;2023-02-16T11:34:00;101896.57;;;17.54;45.51
49063;BME280;34876;51.464;-0.150;2023-02-16T11:36:32;101892.21;;;17.96;44.23
49063;BME280;34876;51.464;-0.150;2023-02-16T11:39:04;101889.33;;;17.75;44.29
49063;BME280;34876;51.464;-0.150;2023-02-16T11:41:35;101886.15;;;18.09;43.51
49063;BME280;34876;51.464;-0.150;2023-02-16T11:44:22;101884.69;;;18.14;43.29
49063;BME280;34876;51.464;-0.150;2023-02-16T11:46:53;101890.46;;;18.06;43.53
49063;BME280;34876;51.464;-0.150;2023-02-16T11:49:32;101888.05;;;17.82;44.00
49063;BME280;34876;51.464;-0.150;2023-02-16T11:52:18;101883.16;;;18.20;43.12
49063;BME280;34876;51.464;-0.150;2023-02-16T11:54:48;101876.19;;;17.97;44.35
49063;BME280;34876;51.464;-0.150;2023-02-16T11:57:24;101881.85;;;18.26;44.35
49063;BME280;34876;51.464;-0.150;2023-02-16T11:59:56;101878.71;;;18.21;43.67
49063;BME280;34876;51.464;-0.150;2023-02-16T12:02:43;101887.32;;;18.32;43.32
49063;BME280;34876;51.464;-0.150;2023-02-16T12:05:24;101892.49;;;17.95;44.77
49063;BME280;34876;51.464;-0.150;2023-02-16T12:08:10;101894.52;;;18.27;44.39
49063;BME280;34876;51.464;-0.150;2023-02-16T12:10:50;101885.89;;;18.11;44.39
49063;BME280;34876;51.464;-0.150;2023-02-16T12:13:27;101879.05;;;18.29;43.65
49063;BME280;34876;51.464;-0.150;2023-02-16T12:16:13;101877.56;;;17.85;44.99
49063;BME280;34876;51.464;-0.150;2023-02-16T12:18:55;101876.66;;;18.11;44.37
49063;BME280;34876;51.464;-0.150;2023-02-16T12:21:35;101869.81;;;18.23;45.47
49063;BME280;34876;51.464;-0.150;2023-02-16T12:24:15;101866.08;;;18.21;44.16
49063;BME280;34876;51.464;-0.150;2023-02-16T12:26:50;101858.67;;;18.13;44.18
49063;BME280;34876;51.464;-0.150;2023-02-16T12:29:30;101860.42;;;18.07;47.54
49063;BME280;34876;51.464;-0.150;2023-02-16T12:32:14;101860.26;;;17.98;44.77
49063;BME280;34876;51.464;-0.150;2023-02-16T12:34:53;101855.61;;;18.13;44.19
49063;BME280;34876;51.464;-0.150;2023-02-16T12:37:35;101851.14;;;18.23;44.27
49063;BME280;34876;51.464;-0.150;2023-02-16T12:40:14;101844.21;;;18.23;47.74
49063;BME280;34876;51.464;-0.150;2023-02-16T12:42:59;101842.65;;;18.33;43.28
49063;BME280;34876;51.464;-0.150;2023-02-16T12:45:34;101841.82;;;18.19;45.06
49063;BME280;34876;51.464;-0.150;2023-02-16T12:48:15;101845.48;;;18.29;43.86
49063;BME280;34876;51.464;-0.150;2023-02-16T12:50:49;101837.09;;;18.20;44.27
49063;BME280;34876;51.464;-0.150;2023-02-16T12:53:32;101839.42;;;18.31;43.92
49063;BME280;34876;51.464;-0.150;2023-02-16T12:56:08;101846.66;;;18.31;43.84
49063;BME280;34876;51.464;-0.150;2023-02-16T12:58:42;101852.93;;;18.23;43.85
49063;BME280;34876;51.464;-0.150;2023-02-16T13:01:16;101844.76;;;18.34;43.84
49063;BME280;34876;51.464;-0.150;2023-02-16T13:03:51;101850.56;;;18.27;44.42
49063;BME280;34876;51.464;-0.150;2023-02-16T13:06:27;101853.71;;;18.28;43.65
49063;BME280;34876;51.464;-0.150;2023-02-16T13:09:07;101845.35;;;18.34;43.37